Wekiva Springs, Florida
Current Conditions -  °F | °C
As of 2:53 AM on Friday 21 Nov 2014 (Local Time) from KORL Reporting Station
Clear Clear  
Wind Chill: 14°   Ceiling: Unl
Heat Index: 14°   Visibility: 10mi
Dew Point:   Wind: 10mph
Humidity: 62%   Direction: 10°N
Pressure: 30.22"   Gusts: NA
Location:  28.7°N, 81.42°W
Report Text: KORL 210753Z AUTO 01009KT 10SM CLR 14/07 A3022 RMK AO2 SLP238 T01390067
Loading
Personal Weather Stations






























Interactive Weather Map New forecast layout! Learn more

10-Day Weather Forecast

Advertisements
Track Severe Weather on mobile